sensor_id;sensor_type;location;lat;lon;timestamp;pressure;altitude;pressure_sealevel;temperature;humidity
65872;BME280;52653;50.080;21.992;2023-01-01T00:00:49;99587.30;;;8.58;82.44
65872;BME280;52653;50.080;21.992;2023-01-01T00:03:42;99587.30;;;8.57;82.34
65872;BME280;52653;50.080;21.992;2023-01-01T00:06:16;99590.27;;;8.57;82.38
65872;BME280;52653;50.080;21.992;2023-01-01T00:08:51;99598.83;;;8.56;82.37
65872;BME280;52653;50.080;21.992;2023-01-01T00:11:44;99595.33;;;8.57;82.30
65872;BME280;52653;50.080;21.992;2023-01-01T00:14:17;99595.50;;;8.57;82.32
65872;BME280;52653;50.080;21.992;2023-01-01T00:16:49;99595.69;;;8.58;82.36
65872;BME280;52653;50.080;21.992;2023-01-01T00:19:22;99591.67;;;8.60;82.39
65872;BME280;52653;50.080;21.992;2023-01-01T00:21:54;99595.17;;;8.62;82.32
65872;BME280;52653;50.080;21.992;2023-01-01T00:24:27;99602.86;;;8.61;82.14
65872;BME280;52653;50.080;21.992;2023-01-01T00:26:59;99605.30;;;8.59;82.35
65872;BME280;52653;50.080;21.992;2023-01-01T00:29:32;99604.41;;;8.55;82.35
65872;BME280;52653;50.080;21.992;2023-01-01T00:32:05;99608.42;;;8.53;82.63
65872;BME280;52653;50.080;21.992;2023-01-01T00:34:41;99603.88;;;8.52;82.58
65872;BME280;52653;50.080;21.992;2023-01-01T00:37:14;99603.02;;;8.53;82.56
65872;BME280;52653;50.080;21.992;2023-01-01T00:39:49;99600.23;;;8.57;82.56
65872;BME280;52653;50.080;21.992;2023-01-01T00:42:22;99604.08;;;8.61;82.51
65872;BME280;52653;50.080;21.992;2023-01-01T00:44:54;99614.08;;;8.63;82.47
65872;BME280;52653;50.080;21.992;2023-01-01T00:47:27;99616.02;;;8.66;82.45
65872;BME280;52653;50.080;21.992;2023-01-01T00:49:59;99615.34;;;8.68;82.33
65872;BME280;52653;50.080;21.992;2023-01-01T00:52:32;99611.14;;;8.69;82.22
65872;BME280;52653;50.080;21.992;2023-01-01T00:55:05;99608.35;;;8.71;82.40
65872;BME280;52653;50.080;21.992;2023-01-01T00:57:38;99605.04;;;8.72;82.41
65872;BME280;52653;50.080;21.992;2023-01-01T01:00:13;99609.76;;;8.70;82.63
65872;BME280;52653;50.080;21.992;2023-01-01T01:02:46;99611.31;;;8.67;82.65
65872;BME280;52653;50.080;21.992;2023-01-01T01:05:19;99618.64;;;8.64;82.78
65872;BME280;52653;50.080;21.992;2023-01-01T01:07:51;99617.94;;;8.64;82.97
65872;BME280;52653;50.080;21.992;2023-01-01T01:10:24;99614.80;;;8.65;83.05
65872;BME280;52653;50.080;21.992;2023-01-01T01:12:57;99610.27;;;8.68;83.13
65872;BME280;52653;50.080;21.992;2023-01-01T01:15:30;99613.08;;;8.72;83.15
65872;BME280;52653;50.080;21.992;2023-01-01T01:18:03;99612.41;;;8.77;83.04
65872;BME280;52653;50.080;21.992;2023-01-01T01:20:36;99605.98;;;8.81;82.92
65872;BME280;52653;50.080;21.992;2023-01-01T01:23:08;99606.69;;;8.85;82.82
65872;BME280;52653;50.080;21.992;2023-01-01T01:25:41;99602.85;;;8.89;82.81
65872;BME280;52653;50.080;21.992;2023-01-01T01:28:13;99606.55;;;8.90;82.68
65872;BME280;52653;50.080;21.992;2023-01-01T01:30:47;99603.71;;;8.86;82.81
65872;BME280;52653;50.080;21.992;2023-01-01T01:33:19;99604.77;;;8.83;83.04
65872;BME280;52653;50.080;21.992;2023-01-01T01:35:52;99600.02;;;8.81;83.16
65872;BME280;52653;50.080;21.992;2023-01-01T01:38:25;99604.58;;;8.82;83.28
65872;BME280;52653;50.080;21.992;2023-01-01T01:40:58;99597.94;;;8.82;83.27
65872;BME280;52653;50.080;21.992;2023-01-01T01:43:49;99595.48;;;8.84;83.34
65872;BME280;52653;50.080;21.992;2023-01-01T01:46:26;99600.22;;;8.86;83.34
65872;BME280;52653;50.080;21.992;2023-01-01T01:49:04;99603.23;;;8.90;83.48
65872;BME280;52653;50.080;21.992;2023-01-01T01:51:39;99607.63;;;8.93;83.17
65872;BME280;52653;50.080;21.992;2023-01-01T01:54:16;99605.00;;;8.96;83.31
65872;BME280;52653;50.080;21.992;2023-01-01T01:56:56;99602.91;;;8.98;83.34
65872;BME280;52653;50.080;21.992;2023-01-01T01:59:32;99597.48;;;9.01;83.22
65872;BME280;52653;50.080;21.992;2023-01-01T02:02:11;99587.89;;;9.03;83.25
65872;BME280;52653;50.080;21.992;2023-01-01T02:04:46;99591.41;;;9.04;83.15
65872;BME280;52653;50.080;21.992;2023-01-01T02:07:19;99595.96;;;9.05;83.10
65872;BME280;52653;50.080;21.992;2023-01-01T02:09:53;99593.66;;;9.02;83.11
65872;BME280;52653;50.080;21.992;2023-01-01T02:12:26;99593.81;;;8.98;83.26
65872;BME280;52653;50.080;21.992;2023-01-01T02:14:59;99591.17;;;8.94;83.57
65872;BME280;52653;50.080;21.992;2023-01-01T02:17:35;99591.35;;;8.93;83.74
65872;BME280;52653;50.080;21.992;2023-01-01T02:20:35;99588.20;;;8.93;83.66
65872;BME280;52653;50.080;21.992;2023-01-01T02:23:48;99592.59;;;8.97;83.60
65872;BME280;52653;50.080;21.992;2023-01-01T02:26:41;99593.98;;;8.98;83.66
65872;BME280;52653;50.080;21.992;2023-01-01T02:29:24;99593.11;;;9.00;83.58
65872;BME280;52653;50.080;21.992;2023-01-01T02:32:01;99586.66;;;9.01;83.57
65872;BME280;52653;50.080;21.992;2023-01-01T02:34:42;99582.48;;;9.03;83.47
65872;BME280;52653;50.080;21.992;2023-01-01T02:37:17;99588.24;;;9.03;83.56
65872;BME280;52653;50.080;21.992;2023-01-01T02:39:54;99585.94;;;8.99;83.55
65872;BME280;52653;50.080;21.992;2023-01-01T02:42:30;99586.81;;;8.95;83.73
65872;BME280;52653;50.080;21.992;2023-01-01T02:45:03;99589.08;;;8.93;83.80
65872;BME280;52653;50.080;21.992;2023-01-01T02:47:38;99589.25;;;8.93;83.93
65872;BME280;52653;50.080;21.992;2023-01-01T02:50:14;99592.92;;;8.95;83.84
65872;BME280;52653;50.080;21.992;2023-01-01T02:53:16;99593.11;;;8.97;83.70
65872;BME280;52653;50.080;21.992;2023-01-01T02:55:59;99598.71;;;9.01;83.65
65872;BME280;52653;50.080;21.992;2023-01-01T02:58:37;99597.02;;;9.03;83.63
65872;BME280;52653;50.080;21.992;2023-01-01T03:01:33;99596.84;;;9.07;83.82
65872;BME280;52653;50.080;21.992;2023-01-01T03:04:13;99597.89;;;9.09;83.56
65872;BME280;52653;50.080;21.992;2023-01-01T03:06:58;99595.27;;;9.07;83.59
65872;BME280;52653;50.080;21.992;2023-01-01T03:09:44;99587.39;;;9.05;83.80
65872;BME280;52653;50.080;21.992;2023-01-01T03:12:24;99591.23;;;9.08;83.82
65872;BME280;52653;50.080;21.992;2023-01-01T03:15:17;99583.55;;;9.10;83.68
65872;BME280;52653;50.080;21.992;2023-01-01T03:17:56;99583.03;;;9.13;83.69
65872;BME280;52653;50.080;21.992;2023-01-01T03:20:34;99590.76;;;9.17;83.59
65872;BME280;52653;50.080;21.992;2023-01-01T03:23:12;99579.04;;;9.20;83.40
65872;BME280;52653;50.080;21.992;2023-01-01T03:25:51;99581.49;;;9.21;83.48
65872;BME280;52653;50.080;21.992;2023-01-01T03:28:29;99587.27;;;9.24;83.41
65872;BME280;52653;50.080;21.992;2023-01-01T03:31:04;99586.75;;;9.26;83.39
65872;BME280;52653;50.080;21.992;2023-01-01T03:33:40;99591.69;;;9.29;83.16
65872;BME280;52653;50.080;21.992;2023-01-01T03:36:17;99582.06;;;9.32;83.23
65872;BME280;52653;50.080;21.992;2023-01-01T03:38:52;99582.77;;;9.35;83.20
65872;BME280;52653;50.080;21.992;2023-01-01T03:41:31;99583.11;;;9.37;83.09
65872;BME280;52653;50.080;21.992;2023-01-01T03:44:10;99586.09;;;9.37;83.01
65872;BME280;52653;50.080;21.992;2023-01-01T03:46:42;99579.44;;;9.35;82.97
65872;BME280;52653;50.080;21.992;2023-01-01T03:49:15;99582.75;;;9.31;83.15
65872;BME280;52653;50.080;21.992;2023-01-01T03:52:09;99581.52;;;9.28;83.17
65872;BME280;52653;50.080;21.992;2023-01-01T03:54:51;99579.42;;;9.29;83.25
65872;BME280;52653;50.080;21.992;2023-01-01T03:57:36;99583.45;;;9.30;83.19
65872;BME280;52653;50.080;21.992;2023-01-01T04:00:18;99582.59;;;9.33;83.15
65872;BME280;52653;50.080;21.992;2023-01-01T04:02:53;99578.38;;;9.36;83.05
65872;BME280;52653;50.080;21.992;2023-01-01T04:05:29;99573.66;;;9.39;82.84
65872;BME280;52653;50.080;21.992;2023-01-01T04:08:04;99578.42;;;9.41;82.60
65872;BME280;52653;50.080;21.992;2023-01-01T04:10:40;99577.90;;;9.42;82.58
65872;BME280;52653;50.080;21.992;2023-01-01T04:13:14;99580.70;;;9.45;82.45
65872;BME280;52653;50.080;21.992;2023-01-01T04:15:46;99580.88;;;9.44;82.35
65872;BME280;52653;50.080;21.992;2023-01-01T04:18:19;99580.87;;;9.40;82.45
65872;BME280;52653;50.080;21.992;2023-01-01T04:20:52;99578.39;;;9.37;82.58
65872;BME280;52653;50.080;21.992;2023-01-01T04:23:24;99579.61;;;9.37;82.71
65872;BME280;52653;50.080;21.992;2023-01-01T04:25:57;99582.59;;;9.37;82.57
65872;BME280;52653;50.080;21.992;2023-01-01T04:28:29;99591.54;;;9.40;82.56
65872;BME280;52653;50.080;21.992;2023-01-01T04:31:03;99602.58;;;9.42;82.58
65872;BME280;52653;50.080;21.992;2023-01-01T04:33:40;99597.15;;;9.43;82.58
65872;BME280;52653;50.080;21.992;2023-01-01T04:36:12;99596.63;;;9.45;82.37
65872;BME280;52653;50.080;21.992;2023-01-01T04:38:45;99594.53;;;9.48;82.31
65872;BME280;52653;50.080;21.992;2023-01-01T04:41:18;99585.95;;;9.48;82.28
65872;BME280;52653;50.080;21.992;2023-01-01T04:43:50;99584.73;;;9.49;82.31
65872;BME280;52653;50.080;21.992;2023-01-01T04:46:25;99583.33;;;9.49;82.40
65872;BME280;52653;50.080;21.992;2023-01-01T04:48:57;99587.52;;;9.47;82.43
65872;BME280;52653;50.080;21.992;2023-01-01T04:51:30;99594.70;;;9.45;82.53
65872;BME280;52653;50.080;21.992;2023-01-01T04:54:03;99598.55;;;9.46;82.52
65872;BME280;52653;50.080;21.992;2023-01-01T04:56:35;99598.38;;;9.48;82.51
65872;BME280;52653;50.080;21.992;2023-01-01T04:59:10;99595.05;;;9.51;82.33
65872;BME280;52653;50.080;21.992;2023-01-01T05:01:43;99594.55;;;9.54;82.32
65872;BME280;52653;50.080;21.992;2023-01-01T05:04:16;99594.21;;;9.58;82.23
65872;BME280;52653;50.080;21.992;2023-01-01T05:06:49;99596.84;;;9.61;82.06
65872;BME280;52653;50.080;21.992;2023-01-01T05:09:22;99592.98;;;9.61;81.95
65872;BME280;52653;50.080;21.992;2023-01-01T05:11:57;99602.44;;;9.61;82.00
65872;BME280;52653;50.080;21.992;2023-01-01T05:14:29;99592.64;;;9.59;82.05
65872;BME280;52653;50.080;21.992;2023-01-01T05:17:02;99597.02;;;9.56;82.12
65872;BME280;52653;50.080;21.992;2023-01-01T05:19:34;99601.75;;;9.56;82.08
65872;BME280;52653;50.080;21.992;2023-01-01T05:22:07;99592.46;;;9.58;82.03
65872;BME280;52653;50.080;21.992;2023-01-01T05:24:43;99587.03;;;9.60;82.15
65872;BME280;52653;50.080;21.992;2023-01-01T05:27:16;99589.13;;;9.64;81.93
65872;BME280;52653;50.080;21.992;2023-01-01T05:29:48;99592.14;;;9.68;81.88
65872;BME280;52653;50.080;21.992;2023-01-01T05:32:21;99583.39;;;9.71;81.79
65872;BME280;52653;50.080;21.992;2023-01-01T05:34:53;99575.15;;;9.73;81.74
65872;BME280;52653;50.080;21.992;2023-01-01T05:37:26;99581.28;;;9.74;81.78
65872;BME280;52653;50.080;21.992;2023-01-01T05:39:59;99577.95;;;9.72;81.66
65872;BME280;52653;50.080;21.992;2023-01-01T05:42:31;99579.88;;;9.71;81.81
65872;BME280;52653;50.080;21.992;2023-01-01T05:45:04;99581.64;;;9.70;81.64
65872;BME280;52653;50.080;21.992;2023-01-01T05:47:38;99579.01;;;9.69;81.68
65872;BME280;52653;50.080;21.992;2023-01-01T05:50:12;99581.27;;;9.71;81.57
65872;BME280;52653;50.080;21.992;2023-01-01T05:52:44;99580.75;;;9.72;81.49
65872;BME280;52653;50.080;21.992;2023-01-01T05:55:17;99581.45;;;9.74;81.46
65872;BME280;52653;50.080;21.992;2023-01-01T05:57:50;99582.50;;;9.75;81.46
65872;BME280;52653;50.080;21.992;2023-01-01T06:00:22;99578.29;;;9.77;81.42
65872;BME280;52653;50.080;21.992;2023-01-01T06:02:56;99578.14;;;9.79;81.20
65872;BME280;52653;50.080;21.992;2023-01-01T06:05:29;99577.09;;;9.83;81.15
65872;BME280;52653;50.080;21.992;2023-01-01T06:08:01;99591.63;;;9.83;81.13
65872;BME280;52653;50.080;21.992;2023-01-01T06:10:34;99598.48;;;9.80;81.07
65872;BME280;52653;50.080;21.992;2023-01-01T06:13:06;99593.54;;;9.75;81.31
65872;BME280;52653;50.080;21.992;2023-01-01T06:15:43;99589.69;;;9.70;81.45
65872;BME280;52653;50.080;21.992;2023-01-01T06:18:24;99593.89;;;9.69;81.46
65872;BME280;52653;50.080;21.992;2023-01-01T06:21:04;99600.19;;;9.69;81.50
65872;BME280;52653;50.080;21.992;2023-01-01T06:23:37;99609.13;;;9.69;81.43
65872;BME280;52653;50.080;21.992;2023-01-01T06:26:13;99608.77;;;9.68;81.39
65872;BME280;52653;50.080;21.992;2023-01-01T06:28:47;99605.10;;;9.68;81.34
65872;BME280;52653;50.080;21.992;2023-01-01T06:31:21;99603.52;;;9.69;81.39
65872;BME280;52653;50.080;21.992;2023-01-01T06:33:54;99605.98;;;9.70;81.32
65872;BME280;52653;50.080;21.992;2023-01-01T06:36:29;99612.63;;;9.67;81.30
65872;BME280;52653;50.080;21.992;2023-01-01T06:39:02;99615.76;;;9.63;81.38
65872;BME280;52653;50.080;21.992;2023-01-01T06:41:34;99624.52;;;9.58;81.48
65872;BME280;52653;50.080;21.992;2023-01-01T06:44:07;99630.09;;;9.53;81.78
65872;BME280;52653;50.080;21.992;2023-01-01T06:46:40;99637.78;;;9.52;81.90
65872;BME280;52653;50.080;21.992;2023-01-01T06:49:14;99640.61;;;9.54;81.99
65872;BME280;52653;50.080;21.992;2023-01-01T06:51:46;99646.92;;;9.58;81.87
65872;BME280;52653;50.080;21.992;2023-01-01T06:54:19;99657.79;;;9.63;81.81
65872;BME280;52653;50.080;21.992;2023-01-01T06:56:51;99657.48;;;9.69;81.67
65872;BME280;52653;50.080;21.992;2023-01-01T06:59:24;99659.23;;;9.74;81.46
65872;BME280;52653;50.080;21.992;2023-01-01T07:01:57;99661.51;;;9.78;81.28
65872;BME280;52653;50.080;21.992;2023-01-01T07:04:32;99666.27;;;9.81;81.16
65872;BME280;52653;50.080;21.992;2023-01-01T07:07:04;99674.15;;;9.82;81.25
65872;BME280;52653;50.080;21.992;2023-01-01T07:09:37;99670.13;;;9.84;81.16
65872;BME280;52653;50.080;21.992;2023-01-01T07:12:09;99679.77;;;9.88;80.97
65872;BME280;52653;50.080;21.992;2023-01-01T07:14:43;99680.66;;;9.94;80.94
65872;BME280;52653;50.080;21.992;2023-01-01T07:17:16;99672.09;;;10.01;80.65
65872;BME280;52653;50.080;21.992;2023-01-01T07:19:49;99675.09;;;10.10;80.36
65872;BME280;52653;50.080;21.992;2023-01-01T07:22:21;99678.79;;;10.17;80.07
65872;BME280;52653;50.080;21.992;2023-01-01T07:24:54;99678.12;;;10.23;79.78
65872;BME280;52653;50.080;21.992;2023-01-01T07:27:28;99682.67;;;10.29;79.54
65872;BME280;52653;50.080;21.992;2023-01-01T07:30:01;99673.59;;;10.30;79.39
65872;BME280;52653;50.080;21.992;2023-01-01T07:32:34;99677.95;;;10.32;79.25
65872;BME280;52653;50.080;21.992;2023-01-01T07:35:07;99673.40;;;10.35;79.18
65872;BME280;52653;50.080;21.992;2023-01-01T07:37:40;99684.95;;;10.39;79.06
65872;BME280;52653;50.080;21.992;2023-01-01T07:40:14;99689.36;;;10.45;78.97
65872;BME280;52653;50.080;21.992;2023-01-01T07:42:47;99691.28;;;10.49;78.81
65872;BME280;52653;50.080;21.992;2023-01-01T07:45:19;99690.25;;;10.54;78.70
65872;BME280;52653;50.080;21.992;2023-01-01T07:47:55;99697.96;;;10.57;78.59
65872;BME280;52653;50.080;21.992;2023-01-01T07:50:30;99703.05;;;10.61;78.53
65872;BME280;52653;50.080;21.992;2023-01-01T07:53:03;99700.23;;;10.63;78.46
65872;BME280;52653;50.080;21.992;2023-01-01T07:55:36;99699.01;;;10.65;78.36
65872;BME280;52653;50.080;21.992;2023-01-01T07:58:09;99705.50;;;10.69;78.37
65872;BME280;52653;50.080;21.992;2023-01-01T08:00:46;99708.83;;;10.74;78.24
65872;BME280;52653;50.080;21.992;2023-01-01T08:03:19;99716.20;;;10.80;78.03
65872;BME280;52653;50.080;21.992;2023-01-01T08:05:51;99720.58;;;10.87;77.89
65872;BME280;52653;50.080;21.992;2023-01-01T08:08:24;99715.66;;;10.92;77.67
65872;BME280;52653;50.080;21.992;2023-01-01T08:11:00;99731.64;;;10.94;77.27
65872;BME280;52653;50.080;21.992;2023-01-01T08:13:34;99736.55;;;10.95;77.51
65872;BME280;52653;50.080;21.992;2023-01-01T08:16:09;99739.71;;;10.93;77.45
65872;BME280;52653;50.080;21.992;2023-01-01T08:18:42;99743.20;;;10.91;77.57
65872;BME280;52653;50.080;21.992;2023-01-01T08:21:14;99746.01;;;10.91;77.56
65872;BME280;52653;50.080;21.992;2023-01-01T08:23:47;99752.16;;;10.91;77.45
65872;BME280;52653;50.080;21.992;2023-01-01T08:26:28;99757.45;;;10.94;77.36
65872;BME280;52653;50.080;21.992;2023-01-01T08:29:04;99758.65;;;10.98;77.33
65872;BME280;52653;50.080;21.992;2023-01-01T08:31:37;99758.48;;;10.99;77.15
65872;BME280;52653;50.080;21.992;2023-01-01T08:34:11;99757.08;;;10.99;77.35
65872;BME280;52653;50.080;21.992;2023-01-01T08:36:44;99770.59;;;10.99;77.14
65872;BME280;52653;50.080;21.992;2023-01-01T08:39:18;99779.73;;;10.99;77.15
65872;BME280;52653;50.080;21.992;2023-01-01T08:41:50;99782.70;;;11.01;77.11
65872;BME280;52653;50.080;21.992;2023-01-01T08:44:23;99790.96;;;11.06;77.00
65872;BME280;52653;50.080;21.992;2023-01-01T08:46:56;99790.07;;;11.13;76.61
65872;BME280;52653;50.080;21.992;2023-01-01T08:49:29;99796.91;;;11.18;76.50
65872;BME280;52653;50.080;21.992;2023-01-01T08:52:01;99795.68;;;11.24;76.27
65872;BME280;52653;50.080;21.992;2023-01-01T08:54:35;99802.34;;;11.29;76.05
65872;BME280;52653;50.080;21.992;2023-01-01T08:57:08;99800.42;;;11.32;75.77
65872;BME280;52653;50.080;21.992;2023-01-01T08:59:41;99805.52;;;11.36;75.81
65872;BME280;52653;50.080;21.992;2023-01-01T09:02:15;99814.98;;;11.40;75.70
65872;BME280;52653;50.080;21.992;2023-01-01T09:04:47;99814.11;;;11.44;75.49
65872;BME280;52653;50.080;21.992;2023-01-01T09:07:22;99820.05;;;11.51;75.06
65872;BME280;52653;50.080;21.992;2023-01-01T09:09:55;99815.66;;;11.60;74.60
65872;BME280;52653;50.080;21.992;2023-01-01T09:12:27;99814.23;;;11.68;74.21
65872;BME280;52653;50.080;21.992;2023-01-01T09:15:01;99812.80;;;11.74;74.01
65872;BME280;52653;50.080;21.992;2023-01-01T09:17:33;99813.85;;;11.75;74.04
65872;BME280;52653;50.080;21.992;2023-01-01T09:20:09;99812.46;;;11.73;74.07
65872;BME280;52653;50.080;21.992;2023-01-01T09:22:42;99813.52;;;11.72;74.21
65872;BME280;52653;50.080;21.992;2023-01-01T09:25:17;99819.85;;;11.70;74.22
65872;BME280;52653;50.080;21.992;2023-01-01T09:27:50;99829.69;;;11.72;74.11
65872;BME280;52653;50.080;21.992;2023-01-01T09:30:28;99822.11;;;11.76;73.85
65872;BME280;52653;50.080;21.992;2023-01-01T09:33:01;99812.29;;;11.82;73.67
65872;BME280;52653;50.080;21.992;2023-01-01T09:35:35;99813.84;;;11.90;73.61
65872;BME280;52653;50.080;21.992;2023-01-01T09:38:08;99823.48;;;11.95;73.71
65872;BME280;52653;50.080;21.992;2023-01-01T09:40:50;99822.07;;;12.01;73.69
65872;BME280;52653;50.080;21.992;2023-01-01T09:43:34;99822.05;;;12.03;73.49
65872;BME280;52653;50.080;21.992;2023-01-01T09:46:12;99825.41;;;12.02;73.19
65872;BME280;52653;50.080;21.992;2023-01-01T09:48:51;99825.95;;;11.99;73.34
65872;BME280;52653;50.080;21.992;2023-01-01T09:51:27;99828.23;;;11.99;73.37
65872;BME280;52653;50.080;21.992;2023-01-01T09:54:10;99833.33;;;12.00;73.27
65872;BME280;52653;50.080;21.992;2023-01-01T09:56:45;99836.64;;;12.04;73.32
65872;BME280;52653;50.080;21.992;2023-01-01T09:59:19;99839.11;;;12.07;73.00
65872;BME280;52653;50.080;21.992;2023-01-01T10:01:55;99837.87;;;12.10;72.98
65872;BME280;52653;50.080;21.992;2023-01-01T10:04:51;99843.48;;;12.15;72.66
65872;BME280;52653;50.080;21.992;2023-01-01T10:07:33;99845.02;;;12.19;72.40
65872;BME280;52653;50.080;21.992;2023-01-01T10:10:16;99848.73;;;12.22;72.19
65872;BME280;52653;50.080;21.992;2023-01-01T10:12:55;99837.81;;;12.23;72.32
65872;BME280;52653;50.080;21.992;2023-01-01T10:15:35;99843.95;;;12.24;72.39
65872;BME280;52653;50.080;21.992;2023-01-01T10:18:15;99846.27;;;12.23;72.29
65872;BME280;52653;50.080;21.992;2023-01-01T10:20:52;99847.67;;;12.20;72.16
65872;BME280;52653;50.080;21.992;2023-01-01T10:23:27;99847.14;;;12.17;72.06
65872;BME280;52653;50.080;21.992;2023-01-01T10:26:10;99840.29;;;12.16;72.17
65872;BME280;52653;50.080;21.992;2023-01-01T10:28:50;99836.23;;;12.19;72.18
65872;BME280;52653;50.080;21.992;2023-01-01T10:31:31;99835.19;;;12.19;71.95
65872;BME280;52653;50.080;21.992;2023-01-01T10:34:14;99832.91;;;12.16;71.96
65872;BME280;52653;50.080;21.992;2023-01-01T10:36:47;99833.11;;;12.11;71.83
65872;BME280;52653;50.080;21.992;2023-01-01T10:39:22;99831.38;;;12.05;71.95
65872;BME280;52653;50.080;21.992;2023-01-01T10:41:55;99835.25;;;12.01;72.25
65872;BME280;52653;50.080;21.992;2023-01-01T10:44:30;99834.58;;;11.97;72.24
65872;BME280;52653;50.080;21.992;2023-01-01T10:47:12;99839.50;;;11.94;72.31
65872;BME280;52653;50.080;21.992;2023-01-01T10:49:56;99834.05;;;11.93;72.21
65872;BME280;52653;50.080;21.992;2023-01-01T10:52:33;99833.87;;;11.93;72.14
65872;BME280;52653;50.080;21.992;2023-01-01T10:55:08;99828.77;;;11.93;72.11
65872;BME280;52653;50.080;21.992;2023-01-01T10:57:50;99818.58;;;11.91;72.23
65872;BME280;52653;50.080;21.992;2023-01-01T11:00:25;99817.38;;;11.86;72.39
65872;BME280;52653;50.080;21.992;2023-01-01T11:03:20;99823.70;;;11.79;72.34
65872;BME280;52653;50.080;21.992;2023-01-01T11:06:12;99822.66;;;11.71;72.62
65872;BME280;52653;50.080;21.992;2023-01-01T11:08:49;99821.08;;;11.65;72.92
65872;BME280;52653;50.080;21.992;2023-01-01T11:11:29;99818.80;;;11.64;73.01
65872;BME280;52653;50.080;21.992;2023-01-01T11:14:03;99815.81;;;11.65;73.17
65872;BME280;52653;50.080;21.992;2023-01-01T11:16:40;99811.05;;;11.67;72.96
65872;BME280;52653;50.080;21.992;2023-01-01T11:19:22;99809.31;;;11.70;72.92
65872;BME280;52653;50.080;21.992;2023-01-01T11:21:55;99793.30;;;11.76;72.79
65872;BME280;52653;50.080;21.992;2023-01-01T11:24:30;99793.30;;;11.85;72.80
65872;BME280;52653;50.080;21.992;2023-01-01T11:27:20;99796.61;;;11.94;72.71
65872;BME280;52653;50.080;21.992;2023-01-01T11:30:24;99800.27;;;12.01;72.41
65872;BME280;52653;50.080;21.992;2023-01-01T11:32:59;99797.44;;;12.08;72.09
65872;BME280;52653;50.080;21.992;2023-01-01T11:35:36;99785.09;;;12.12;71.66
65872;BME280;52653;50.080;21.992;2023-01-01T11:38:19;99786.84;;;12.16;71.79
65872;BME280;52653;50.080;21.992;2023-01-01T11:41:04;99787.33;;;12.24;71.81
65872;BME280;52653;50.080;21.992;2023-01-01T11:43:42;99786.59;;;12.30;71.13
65872;BME280;52653;50.080;21.992;2023-01-01T11:46:21;99775.98;;;12.39;71.08
65872;BME280;52653;50.080;21.992;2023-01-01T11:48:55;99772.40;;;12.50;70.85
65872;BME280;52653;50.080;21.992;2023-01-01T11:51:32;99769.00;;;12.59;70.39
65872;BME280;52653;50.080;21.992;2023-01-01T11:54:23;99771.57;;;12.68;70.34
65872;BME280;52653;50.080;21.992;2023-01-01T11:56:59;99773.46;;;12.75;69.63
65872;BME280;52653;50.080;21.992;2023-01-01T11:59:40;99776.27;;;12.76;69.35
65872;BME280;52653;50.080;21.992;2023-01-01T12:02:21;99777.31;;;12.78;69.37
65872;BME280;52653;50.080;21.992;2023-01-01T12:04:59;99783.80;;;12.80;69.07
65872;BME280;52653;50.080;21.992;2023-01-01T12:07:40;99776.94;;;12.79;68.88
65872;BME280;52653;50.080;21.992;2023-01-01T12:10:20;99772.89;;;12.80;68.90
65872;BME280;52653;50.080;21.992;2023-01-01T12:12:59;99771.67;;;12.78;68.30
65872;BME280;52653;50.080;21.992;2023-01-01T12:15:36;99764.65;;;12.76;68.44
65872;BME280;52653;50.080;21.992;2023-01-01T12:18:17;99760.42;;;12.76;68.39
65872;BME280;52653;50.080;21.992;2023-01-01T12:20:57;99760.09;;;12.75;68.18
65872;BME280;52653;50.080;21.992;2023-01-01T12:23:33;99746.36;;;12.74;67.93
65872;BME280;52653;50.080;21.992;2023-01-01T12:26:15;99737.19;;;12.76;68.30
65872;BME280;52653;50.080;21.992;2023-01-01T12:29:06;99742.60;;;12.81;68.07
65872;BME280;52653;50.080;21.992;2023-01-01T12:31:50;99745.34;;;12.90;67.97
65872;BME280;52653;50.080;21.992;2023-01-01T12:34:28;99741.77;;;12.96;67.37
65872;BME280;52653;50.080;21.992;2023-01-01T12:37:09;99751.93;;;13.03;67.47
65872;BME280;52653;50.080;21.992;2023-01-01T12:40:27;99757.16;;;13.07;67.01
65872;BME280;52653;50.080;21.992;2023-01-01T12:43:06;99768.61;;;13.06;66.89
65872;BME280;52653;50.080;21.992;2023-01-01T12:46:08;99762.45;;;13.08;66.97
65872;BME280;52653;50.080;21.992;2023-01-01T12:48:51;99759.11;;;13.09;66.80
65872;BME280;52653;50.080;21.992;2023-01-01T12:51:39;99754.86;;;13.10;66.94
65872;BME280;52653;50.080;21.992;2023-01-01T12:54:38;99752.23;;;13.10;66.50
65872;BME280;52653;50.080;21.992;2023-01-01T12:57:27;99751.00;;;13.10;66.53
65872;BME280;52653;50.080;21.992;2023-01-01T13:00:11;99757.52;;;13.08;66.80
65872;BME280;52653;50.080;21.992;2023-01-01T13:02:48;99759.11;;;13.07;66.78
65872;BME280;52653;50.080;21.992;2023-01-01T13:05:27;99756.15;;;13.04;66.92
65872;BME280;52653;50.080;21.992;2023-01-01T13:08:05;99759.88;;;13.00;66.99
65872;BME280;52653;50.080;21.992;2023-01-01T13:10:41;99763.63;;;12.93;66.88
65872;BME280;52653;50.080;21.992;2023-01-01T13:13:15;99769.19;;;12.82;67.00
65872;BME280;52653;50.080;21.992;2023-01-01T13:15:52;99767.32;;;12.71;67.40
65872;BME280;52653;50.080;21.992;2023-01-01T13:18:30;99767.55;;;12.63;67.75
65872;BME280;52653;50.080;21.992;2023-01-01T13:21:14;99773.59;;;12.58;68.06
65872;BME280;52653;50.080;21.992;2023-01-01T13:24:02;99783.09;;;12.54;68.14
65872;BME280;52653;50.080;21.992;2023-01-01T13:26:42;99779.95;;;12.51;68.22
65872;BME280;52653;50.080;21.992;2023-01-01T13:29:43;99778.92;;;12.48;68.49
65872;BME280;52653;50.080;21.992;2023-01-01T13:32:18;99785.98;;;12.48;68.53
65872;BME280;52653;50.080;21.992;2023-01-01T13:35:13;99785.27;;;12.45;68.68
65872;BME280;52653;50.080;21.992;2023-01-01T13:37:48;99781.41;;;12.42;68.68
65872;BME280;52653;50.080;21.992;2023-01-01T13:40:49;99786.72;;;12.39;68.88
65872;BME280;52653;50.080;21.992;2023-01-01T13:43:33;99791.83;;;12.38;68.93
65872;BME280;52653;50.080;21.992;2023-01-01T13:46:08;99796.95;;;12.32;69.03